Portada
METAR-TAF:

METAR-TAF

Aeroports :

Beja, Portugal

latitud: 38-04-40N, longitud: 007-55-57W, altitud: 193 m

Observació

L'informe es va fer fa 1 hora i 1 minuts, a les 13:00 UTC
Vent 5 kt amb direcció variable
Temperatura 29°C
Humitat 29%
Pressió 1019 hPa
Visibilitat 10 km o més
sense núvols per sota de 1500 mi sense presència de cumulonimbus.

METAR: LPBJ 031300Z VRB05KT CAVOK 29/09 Q1019

Hora: 15:01 (14:01 UTC)

Pronòstic

L'informe es va fer fa 2 hores i 59 minuts, a les 11:02 UTC
Pronòstic vàlid del 03 a les 12 UTC al 04 a les 12 UTC
Vent 10 kt del Nord/Nord-Oest
Visibilitat 10 km o més
sense núvols per sota de 1500 mi sense presència de cumulonimbus.
Evolucionant progressivament
l' 04 a les 01 UTC al 04 a les 03 UTC
Vent 2 kt amb direcció variable

TAF: LPBJ 031102Z 0312/0412 33010KT CAVOK BECMG 0401/0403 VRB02KT

Observacions i pronòstics meteorològics de més de 4000 aeroports (METAR i TAF).

Les estacions disponibles són els punts grocs i vermells al mapa.

Posi el ratolí al punt desitjat per veure el nom de l'estació.

Feu clic per veure les observacions i els pronòstics meteorològics.

Per canviar el mapa: feu clic els botons verds amb una creu de color negre per apropar; al botó verd amb un guió per allunyar la imatge; o en les fletxes verdes per a mapes adjacents.


METAR-TAF: